createdAt,value
2022-08-05T00:01:01.007Z,5.95
2022-08-05T00:04:20.827Z,5.68
2022-08-05T00:07:59.732Z,5.80
2022-08-05T00:10:49.351Z,5.28
2022-08-05T00:13:53.162Z,5.40
2022-08-05T00:16:56.527Z,4.97
2022-08-05T00:20:02.065Z,5.57
2022-08-05T00:23:12.968Z,5.20
2022-08-05T00:26:19.866Z,4.97
2022-08-05T00:29:25.752Z,5.25
2022-08-05T00:32:29.313Z,4.90
2022-08-05T00:35:32.949Z,5.75
2022-08-05T00:38:41.183Z,5.88
2022-08-05T00:41:55.232Z,5.28
2022-08-05T00:44:59.348Z,5.35
2022-08-05T00:48:05.382Z,5.00
2022-08-05T00:51:50.977Z,5.43
2022-08-05T00:54:34.204Z,6.10
2022-08-05T00:57:55.172Z,6.28
2022-08-05T01:00:59.427Z,7.05
2022-08-05T01:04:04.007Z,6.15
2022-08-05T01:07:31.668Z,5.32
2022-08-05T01:10:51.516Z,6.28
2022-08-05T01:14:08.458Z,5.30
2022-08-05T01:17:15.351Z,5.38
2022-08-05T01:20:30.815Z,5.40
2022-08-05T01:23:45.702Z,5.30
2022-08-05T01:27:17.582Z,6.80
2022-08-05T01:30:34.894Z,8.23
2022-08-05T01:33:49.304Z,9.32
2022-08-05T01:37:03.591Z,8.68
2022-08-05T01:40:10.108Z,8.40
2022-08-05T01:43:22.110Z,7.82
2022-08-05T01:46:42.560Z,5.20
2022-08-05T01:50:01.374Z,5.30
2022-08-05T01:53:11.061Z,5.55
2022-08-05T01:58:10.549Z,5.50
2022-08-05T01:59:42.215Z,5.57
2022-08-05T02:02:57.255Z,5.18
2022-08-05T02:06:12.688Z,4.75
2022-08-05T02:09:25.651Z,5.30
2022-08-05T02:12:38.602Z,5.63
2022-08-05T02:15:46.355Z,5.38
2022-08-05T02:18:55.928Z,6.43
2022-08-05T02:22:03.324Z,6.13
2022-08-05T02:25:13.716Z,6.00
2022-08-05T02:28:29.018Z,5.45
2022-08-05T02:31:36.989Z,5.05
2022-08-05T02:34:43.584Z,5.00
2022-08-05T02:38:00.201Z,4.88
2022-08-05T02:41:17.295Z,5.05
2022-08-05T02:44:25.597Z,5.13
2022-08-05T02:47:58.698Z,4.95
2022-08-05T02:50:58.071Z,5.18
2022-08-05T02:54:03.468Z,5.90
2022-08-05T02:58:09.708Z,5.15
2022-08-05T03:00:36.744Z,4.93
2022-08-05T03:04:03.383Z,5.45
2022-08-05T03:07:09.783Z,5.43
2022-08-05T03:10:33.168Z,5.40
2022-08-05T03:13:51.896Z,5.00
2022-08-05T03:17:00.045Z,5.18
2022-08-05T03:20:04.850Z,5.57
2022-08-05T03:23:12.908Z,5.15
2022-08-05T03:26:32.517Z,5.55
2022-08-05T03:29:45.761Z,5.10
2022-08-05T03:33:01.114Z,4.70
2022-08-05T03:36:06.742Z,4.50
2022-08-05T03:39:26.748Z,4.18
2022-08-05T03:42:32.411Z,4.45
2022-08-05T03:45:57.386Z,4.53
2022-08-05T03:49:02.310Z,4.43
2022-08-05T03:52:50.074Z,5.15
2022-08-05T03:56:06.147Z,5.20
2022-08-05T03:59:10.593Z,5.70
2022-08-05T04:02:17.533Z,5.20
2022-08-05T04:05:40.901Z,5.35
2022-08-05T04:08:46.037Z,5.20
2022-08-05T04:11:53.422Z,6.30
2022-08-05T04:14:57.561Z,6.15
2022-08-05T04:18:03.338Z,5.85
2022-08-05T04:21:07.514Z,6.38
2022-08-05T04:24:19.545Z,6.25
2022-08-05T04:27:41.577Z,6.28
2022-08-05T04:30:47.051Z,5.45
2022-08-05T04:34:17.662Z,5.68
2022-08-05T04:37:14.774Z,6.13
2022-08-05T04:40:20.132Z,6.22
2022-08-05T04:43:24.906Z,5.88
2022-08-05T04:46:29.395Z,6.65
2022-08-05T04:50:01.353Z,6.50
2022-08-05T04:52:56.533Z,5.70
2022-08-05T04:56:33.269Z,5.60
2022-08-05T04:59:36.669Z,5.18
2022-08-05T05:02:43.320Z,5.07
2022-08-05T05:06:36.645Z,5.00
2022-08-05T05:09:13.296Z,4.35
2022-08-05T05:12:20.298Z,4.38
2022-08-05T05:15:57.848Z,4.32
2022-08-05T05:19:16.465Z,3.72
2022-08-05T05:22:24.239Z,3.95
2022-08-05T05:25:32.838Z,4.40
2022-08-05T05:28:45.141Z,4.25
2022-08-05T05:31:49.995Z,4.50
2022-08-05T05:34:54.512Z,3.80
2022-08-05T05:38:01.743Z,4.43
2022-08-05T05:41:07.645Z,4.35
2022-08-05T05:44:35.559Z,3.80
2022-08-05T05:48:05.756Z,4.25
2022-08-05T05:50:59.627Z,4.82
2022-08-05T05:54:19.697Z,4.43
2022-08-05T05:57:23.254Z,4.07
2022-08-05T06:00:27.787Z,4.22
2022-08-05T06:03:53.640Z,3.97
2022-08-05T06:07:02.620Z,4.65
2022-08-05T06:10:10.147Z,4.13
2022-08-05T06:13:13.822Z,4.28
2022-08-05T06:16:30.072Z,4.53
2022-08-05T06:19:36.777Z,4.80
2022-08-05T06:22:40.551Z,4.75
2022-08-05T06:26:12.728Z,4.38
2022-08-05T06:29:25.083Z,4.30
2022-08-05T06:32:32.495Z,4.38
2022-08-05T06:36:07.720Z,5.15
2022-08-05T06:39:00.974Z,3.72
2022-08-05T06:42:04.519Z,4.00
2022-08-05T06:45:09.536Z,4.28
2022-08-05T06:48:54.523Z,5.45
2022-08-05T06:51:40.846Z,4.25
2022-08-05T06:54:44.371Z,4.50
2022-08-05T06:58:02.922Z,3.90
2022-08-05T07:01:21.003Z,4.85
2022-08-05T07:04:24.592Z,5.32
2022-08-05T07:07:43.322Z,5.15
2022-08-05T07:10:52.879Z,5.70
2022-08-05T07:14:15.364Z,4.78
2022-08-05T07:18:01.764Z,4.57
2022-08-05T07:20:46.663Z,4.65
2022-08-05T07:23:52.239Z,4.20
2022-08-05T07:26:55.742Z,4.40
2022-08-05T07:30:24.187Z,4.50
2022-08-05T07:33:36.526Z,4.20
2022-08-05T07:36:41.005Z,4.13
2022-08-05T07:40:26.571Z,5.15
2022-08-05T07:43:20.190Z,4.60
2022-08-05T07:46:26.231Z,4.70
2022-08-05T07:49:29.833Z,4.40
2022-08-05T07:52:33.309Z,4.35
2022-08-05T07:56:04.654Z,3.83
2022-08-05T07:59:01.337Z,4.13
2022-08-05T08:02:05.197Z,3.75
2022-08-05T08:05:08.968Z,4.00
2022-08-05T08:08:15.081Z,4.05
2022-08-05T08:11:27.617Z,3.80
2022-08-05T08:14:44.616Z,4.13
2022-08-05T08:17:52.796Z,3.90
2022-08-05T08:21:02.694Z,4.07
2022-08-05T08:24:13.556Z,4.70
2022-08-05T08:27:18.950Z,4.60
2022-08-05T08:30:32.437Z,3.60
2022-08-05T08:33:38.539Z,4.85
2022-08-05T08:36:48.977Z,4.45
2022-08-05T08:39:56.056Z,4.45
2022-08-05T08:45:16.430Z,4.18
2022-08-05T08:46:27.519Z,4.47
2022-08-05T08:50:05.841Z,4.00
2022-08-05T08:53:24.219Z,3.78
2022-08-05T08:56:28.742Z,3.95
2022-08-05T08:59:33.934Z,3.22
2022-08-05T09:02:37.720Z,3.08
2022-08-05T09:06:08.971Z,3.22
2022-08-05T09:09:07.200Z,3.80
2022-08-05T09:12:20.469Z,3.20
2022-08-05T09:15:32.711Z,3.67
2022-08-05T09:18:43.786Z,2.53
2022-08-05T09:22:18.002Z,2.30
2022-08-05T09:25:14.049Z,2.58
2022-08-05T09:28:32.462Z,2.55
2022-08-05T09:32:40.771Z,2.50
2022-08-05T09:35:02.888Z,2.75
2022-08-05T09:38:12.958Z,2.95
2022-08-05T09:41:21.149Z,2.60
2022-08-05T09:44:37.977Z,3.17
2022-08-05T09:47:55.112Z,2.90
2022-08-05T09:51:01.215Z,2.80
2022-08-05T09:54:08.428Z,2.65
2022-08-05T09:57:29.344Z,3.03
2022-08-05T10:00:38.879Z,3.17
2022-08-05T10:03:58.867Z,2.88
2022-08-05T10:07:20.711Z,3.38
2022-08-05T10:10:32.427Z,3.78
2022-08-05T10:13:48.047Z,3.08
2022-08-05T10:16:56.321Z,2.50
2022-08-05T10:20:04.119Z,3.17
2022-08-05T10:23:34.034Z,3.20
2022-08-05T10:26:51.871Z,3.33
2022-08-05T10:30:41.191Z,3.10
2022-08-05T10:33:19.508Z,3.30
2022-08-05T10:36:26.031Z,2.90
2022-08-05T10:39:59.301Z,3.13
2022-08-05T10:43:04.545Z,3.25
2022-08-05T10:46:10.399Z,2.95
2022-08-05T10:49:16.884Z,3.08
2022-08-05T10:52:47.009Z,3.35
2022-08-05T10:56:21.214Z,3.00
2022-08-05T11:00:01.790Z,2.85
2022-08-05T11:03:25.082Z,2.75
2022-08-05T11:06:30.824Z,3.28
2022-08-05T11:09:46.905Z,3.25
2022-08-05T11:12:55.068Z,4.32
2022-08-05T11:16:22.790Z,3.03
2022-08-05T11:20:17.127Z,3.05
2022-08-05T11:24:02.622Z,3.13
2022-08-05T11:27:51.404Z,3.53
2022-08-05T11:31:56.361Z,3.60
2022-08-05T11:34:47.494Z,3.38
2022-08-05T11:38:30.792Z,4.00
2022-08-05T11:41:58.154Z,3.10
2022-08-05T11:44:55.002Z,3.20
2022-08-05T11:47:59.023Z,2.95
2022-08-05T11:51:03.327Z,2.78
2022-08-05T11:54:07.373Z,3.08
2022-08-05T11:57:24.887Z,3.05
2022-08-05T12:00:31.968Z,3.95
2022-08-05T12:03:55.644Z,3.20
2022-08-05T12:07:01.948Z,2.90
2022-08-05T12:10:06.379Z,3.25
2022-08-05T12:13:16.844Z,3.45
2022-08-05T12:16:25.371Z,3.28
2022-08-05T12:20:25.515Z,3.28
2022-08-05T12:22:53.871Z,3.95
2022-08-05T12:25:58.621Z,3.00
2022-08-05T12:29:03.319Z,3.78
2022-08-05T12:32:09.559Z,2.80
2022-08-05T12:35:16.728Z,2.85
2022-08-05T12:38:22.276Z,3.38
2022-08-05T12:41:35.429Z,2.88
2022-08-05T12:44:47.499Z,3.63
2022-08-05T12:48:01.353Z,3.08
2022-08-05T12:52:09.868Z,2.95
2022-08-05T12:54:43.871Z,3.25
2022-08-05T12:58:50.148Z,3.05
2022-08-05T13:02:03.206Z,3.88
2022-08-05T13:04:41.774Z,3.05
2022-08-05T13:08:01.025Z,2.97
2022-08-05T13:11:04.924Z,3.40
2022-08-05T13:14:25.081Z,3.40
2022-08-05T13:17:41.748Z,3.17
2022-08-05T13:20:47.426Z,3.50
2022-08-05T13:23:52.777Z,3.72
2022-08-05T13:26:56.119Z,3.30
2022-08-05T13:30:33.105Z,3.28
2022-08-05T13:34:22.897Z,3.20
2022-08-05T13:36:49.534Z,3.40
2022-08-05T13:40:14.661Z,3.20
2022-08-05T13:43:22.127Z,3.17
2022-08-05T13:46:43.851Z,3.20
2022-08-05T13:49:52.151Z,2.67
2022-08-05T13:52:56.913Z,3.15
2022-08-05T13:56:02.250Z,2.47
2022-08-05T13:59:06.025Z,2.70
2022-08-05T14:02:20.088Z,3.10
2022-08-05T14:06:25.221Z,2.80
2022-08-05T14:08:59.540Z,2.83
2022-08-05T14:12:17.128Z,2.35
2022-08-05T14:16:08.192Z,2.35
2022-08-05T14:18:54.939Z,2.70
2022-08-05T14:22:10.446Z,2.20
2022-08-05T14:25:21.750Z,2.60
2022-08-05T14:28:26.800Z,2.45
2022-08-05T14:31:54.410Z,2.40
2022-08-05T14:34:54.715Z,2.50
2022-08-05T14:38:01.111Z,2.50
2022-08-05T14:41:07.836Z,2.45
2022-08-05T14:44:20.275Z,2.35
2022-08-05T14:48:02.890Z,2.30
2022-08-05T14:50:48.885Z,2.85
2022-08-05T14:54:26.079Z,3.28
2022-08-05T14:57:17.835Z,2.63
2022-08-05T15:00:21.885Z,2.72
2022-08-05T15:03:38.944Z,2.20
2022-08-05T15:06:42.529Z,2.65
2022-08-05T15:09:54.347Z,3.25
2022-08-05T15:13:03.422Z,6.25
2022-08-05T15:16:13.163Z,5.75
2022-08-05T15:19:23.737Z,2.60
2022-08-05T15:22:28.128Z,2.83
2022-08-05T15:25:51.301Z,2.90
2022-08-05T15:28:56.693Z,3.30
2022-08-05T15:32:02.331Z,2.88
2022-08-05T15:35:10.685Z,3.03
2022-08-05T15:38:35.841Z,2.88
2022-08-05T15:41:55.743Z,2.83
2022-08-05T15:45:02.276Z,3.20
2022-08-05T15:48:06.874Z,3.67
2022-08-05T15:51:10.434Z,3.58
2022-08-05T15:54:15.058Z,2.75
2022-08-05T15:57:19.015Z,2.60
2022-08-05T16:00:26.371Z,2.70
2022-08-05T16:03:50.251Z,2.70
2022-08-05T16:06:53.860Z,2.63
2022-08-05T16:09:59.016Z,2.67
2022-08-05T16:13:02.335Z,2.88
2022-08-05T16:16:07.894Z,2.50
2022-08-05T16:19:19.237Z,2.83
2022-08-05T16:22:34.328Z,3.00
2022-08-05T16:25:38.318Z,2.90
2022-08-05T16:28:42.284Z,3.00
2022-08-05T16:31:56.351Z,3.78
2022-08-05T16:35:00.764Z,3.60
2022-08-05T16:38:24.632Z,3.40
2022-08-05T16:42:27.732Z,3.15
2022-08-05T16:44:54.326Z,3.63
2022-08-05T16:48:02.969Z,4.40
2022-08-05T16:51:09.886Z,3.80
2022-08-05T16:54:17.543Z,3.85
2022-08-05T16:57:53.556Z,3.72
2022-08-05T17:00:49.686Z,4.03
2022-08-05T17:03:54.533Z,3.95
2022-08-05T17:07:01.302Z,4.10
2022-08-05T17:10:05.318Z,5.03
2022-08-05T17:13:16.894Z,4.57
2022-08-05T17:16:33.668Z,4.20
2022-08-05T17:19:45.358Z,6.80
2022-08-05T17:22:55.223Z,7.32
2022-08-05T17:25:59.080Z,8.60
2022-08-05T17:29:07.330Z,5.57
2022-08-05T17:32:17.351Z,4.47
2022-08-05T17:35:22.824Z,4.00
2022-08-05T17:38:26.370Z,3.80
2022-08-05T17:42:17.691Z,4.07
2022-08-05T17:44:53.271Z,3.55
2022-08-05T17:47:56.690Z,3.63
2022-08-05T17:51:01.389Z,3.05
2022-08-05T17:54:12.376Z,3.60
2022-08-05T17:57:17.740Z,3.50
2022-08-05T18:00:29.476Z,3.97
2022-08-05T18:03:59.577Z,3.85
2022-08-05T18:07:01.162Z,4.90
2022-08-05T18:10:08.892Z,6.00
2022-08-05T18:13:13.903Z,6.47
2022-08-05T18:16:18.078Z,5.72
2022-08-05T18:19:26.028Z,4.43
2022-08-05T18:22:45.996Z,4.57
2022-08-05T18:25:57.557Z,3.95
2022-08-05T18:29:01.289Z,4.18
2022-08-05T18:32:04.900Z,3.55
2022-08-05T18:35:08.873Z,3.33
2022-08-05T18:38:19.377Z,4.22
2022-08-05T18:41:56.410Z,3.63
2022-08-05T18:44:56.396Z,3.58
2022-08-05T18:48:00.104Z,3.88
2022-08-05T18:52:04.584Z,3.63
2022-08-05T18:54:46.178Z,3.63
2022-08-05T18:57:53.142Z,3.60
2022-08-05T19:00:57.297Z,4.32
2022-08-05T19:04:00.676Z,4.57
2022-08-05T19:07:04.013Z,5.43
2022-08-05T19:10:12.027Z,5.55
2022-08-05T19:13:15.779Z,5.43
2022-08-05T19:16:24.516Z,4.28
2022-08-05T19:19:30.976Z,4.68
2022-08-05T19:22:34.272Z,4.85
2022-08-05T19:25:44.624Z,4.53
2022-08-05T19:28:48.431Z,4.55
2022-08-05T19:31:51.810Z,4.95
2022-08-05T19:34:55.853Z,4.65
2022-08-05T19:38:06.487Z,4.95
2022-08-05T19:41:12.810Z,5.20
2022-08-05T19:44:16.092Z,5.18
2022-08-05T19:47:19.832Z,4.70
2022-08-05T19:50:23.164Z,4.70
2022-08-05T19:54:05.191Z,4.60
2022-08-05T19:56:54.299Z,4.38
2022-08-05T20:00:02.572Z,4.28
2022-08-05T20:03:15.367Z,4.00
2022-08-05T20:06:29.074Z,4.55
2022-08-05T20:09:55.136Z,4.43
2022-08-05T20:12:57.646Z,4.22
2022-08-05T20:16:01.032Z,4.22
2022-08-05T20:19:07.546Z,4.88
2022-08-05T20:22:11.210Z,4.47
2022-08-05T20:25:15.013Z,4.10
2022-08-05T20:28:20.392Z,3.78
2022-08-05T20:31:37.252Z,4.45
2022-08-05T20:34:47.342Z,3.92
2022-08-05T20:38:07.666Z,4.05
2022-08-05T20:41:11.784Z,3.72
2022-08-05T20:44:30.853Z,3.50
2022-08-05T20:47:34.500Z,3.75
2022-08-05T20:50:45.438Z,3.70
2022-08-05T20:53:55.209Z,4.10
2022-08-05T20:57:00.529Z,4.05
2022-08-05T21:00:35.053Z,3.72
2022-08-05T21:03:38.902Z,4.80
2022-08-05T21:06:55.747Z,3.95
2022-08-05T21:09:59.535Z,4.30
2022-08-05T21:13:11.098Z,3.90
2022-08-05T21:16:20.743Z,4.13
2022-08-05T21:19:26.515Z,4.72
2022-08-05T21:22:31.759Z,4.45
2022-08-05T21:25:35.177Z,5.47
2022-08-05T21:28:40.057Z,5.13
2022-08-05T21:31:52.528Z,5.18
2022-08-05T21:35:09.064Z,4.88
2022-08-05T21:38:20.348Z,4.50
2022-08-05T21:41:23.722Z,4.85
2022-08-05T21:44:27.986Z,4.95
2022-08-05T21:47:57.086Z,5.15
2022-08-05T21:50:56.157Z,5.20
2022-08-05T21:54:03.975Z,5.40
2022-08-05T21:57:30.159Z,5.45
2022-08-05T22:00:31.271Z,5.15
2022-08-05T22:03:48.462Z,5.32
2022-08-05T22:06:57.300Z,5.70
2022-08-05T22:10:00.770Z,5.50
2022-08-05T22:13:09.269Z,5.40
2022-08-05T22:16:41.761Z,5.28
2022-08-05T22:20:03.098Z,5.35
2022-08-05T22:24:01.063Z,5.18
2022-08-05T22:27:16.706Z,5.25
2022-08-05T22:30:20.846Z,4.63
2022-08-05T22:33:56.705Z,5.03
2022-08-05T22:36:49.194Z,5.40
2022-08-05T22:39:52.507Z,5.32
2022-08-05T22:42:58.693Z,5.00
2022-08-05T22:46:07.236Z,5.35
2022-08-05T22:50:18.033Z,5.18
2022-08-05T22:52:41.145Z,5.35
2022-08-05T22:55:56.490Z,4.93
2022-08-05T22:59:02.904Z,4.85
2022-08-05T23:02:08.183Z,4.78
2022-08-05T23:05:11.693Z,4.78
2022-08-05T23:08:16.589Z,4.70
2022-08-05T23:11:20.139Z,5.28
2022-08-05T23:14:31.983Z,4.88
2022-08-05T23:17:37.667Z,4.93
2022-08-05T23:20:59.742Z,5.35
2022-08-05T23:24:11.390Z,5.18
2022-08-05T23:27:15.238Z,5.03
2022-08-05T23:30:18.585Z,4.70
2022-08-05T23:33:26.542Z,4.95
2022-08-05T23:36:45.483Z,4.57
2022-08-05T23:39:54.177Z,5.38
2022-08-05T23:42:58.178Z,5.30
2022-08-05T23:46:02.310Z,4.68
2022-08-05T23:49:16.763Z,4.95
2022-08-05T23:52:35.792Z,5.20
2022-08-05T23:55:41.512Z,4.95
2022-08-05T23:58:46.470Z,4.90
